createdAt,value
2022-08-22T00:00:53.772Z,43.20
2022-08-22T00:02:53.348Z,42.40
2022-08-22T00:02:55.135Z,43.00
2022-08-22T00:02:56.067Z,42.20
2022-08-22T00:03:01.581Z,42.80
2022-08-22T00:03:35.296Z,43.20
2022-08-22T00:06:09.450Z,43.20
2022-08-22T00:08:42.572Z,43.30
2022-08-22T00:11:13.431Z,43.30
2022-08-22T00:13:43.675Z,43.20
2022-08-22T00:16:14.346Z,43.30
2022-08-22T00:18:46.666Z,43.30
2022-08-22T00:21:17.922Z,43.30
2022-08-22T00:23:48.928Z,43.40
2022-08-22T00:26:22.014Z,43.40
2022-08-22T00:28:51.245Z,43.40
2022-08-22T00:31:24.232Z,43.30
2022-08-22T00:33:53.912Z,43.40
2022-08-22T00:36:25.673Z,43.40
2022-08-22T00:38:55.746Z,43.40
2022-08-22T00:41:30.138Z,43.40
2022-08-22T00:44:18.324Z,44.00
2022-08-22T00:46:54.517Z,43.40
2022-08-22T00:49:38.188Z,43.40
2022-08-22T00:52:27.000Z,43.50
2022-08-22T00:55:18.261Z,43.40
2022-08-22T00:57:59.719Z,43.50
2022-08-22T01:00:28.174Z,43.50
2022-08-22T01:03:27.937Z,43.50
2022-08-22T01:06:04.824Z,43.50
2022-08-22T01:08:40.975Z,43.50
2022-08-22T01:11:27.148Z,43.50
2022-08-22T01:14:09.136Z,43.50
2022-08-22T01:16:51.816Z,43.50
2022-08-22T01:19:40.744Z,43.60
2022-08-22T01:22:53.478Z,43.60
2022-08-22T01:25:54.000Z,43.60
2022-08-22T01:28:49.031Z,43.60
2022-08-22T01:31:44.307Z,43.60
2022-08-22T01:34:42.912Z,43.60
2022-08-22T01:37:43.422Z,43.60
2022-08-22T01:40:53.567Z,43.60
2022-08-22T01:43:59.541Z,43.70
2022-08-22T01:46:25.476Z,43.70
2022-08-22T01:48:56.475Z,43.70
2022-08-22T01:51:29.263Z,43.70
2022-08-22T01:53:59.525Z,43.70
2022-08-22T01:56:27.280Z,43.70
2022-08-22T01:58:57.051Z,43.70
2022-08-22T02:01:33.082Z,43.80
2022-08-22T02:04:03.577Z,43.90
2022-08-22T02:06:41.418Z,43.80
2022-08-22T02:09:11.717Z,43.80
2022-08-22T02:11:44.720Z,43.80
2022-08-22T02:14:21.260Z,43.80
2022-08-22T02:16:50.577Z,43.80
2022-08-22T02:19:27.652Z,43.80
2022-08-22T02:21:59.423Z,43.80
2022-08-22T02:24:34.033Z,43.80
2022-08-22T02:27:06.709Z,43.90
2022-08-22T02:29:36.777Z,43.90
2022-08-22T02:32:07.687Z,43.90
2022-08-22T02:34:39.280Z,43.90
2022-08-22T02:37:11.664Z,43.90
2022-08-22T02:39:42.948Z,43.90
2022-08-22T02:42:17.160Z,43.90
2022-08-22T02:44:52.716Z,44.00
2022-08-22T02:47:26.180Z,43.90
2022-08-22T02:49:56.589Z,43.90
2022-08-22T02:52:27.999Z,43.90
2022-08-22T02:54:59.289Z,43.90
2022-08-22T02:57:31.399Z,43.90
2022-08-22T03:00:27.745Z,43.90
2022-08-22T03:03:04.923Z,43.90
2022-08-22T03:05:42.855Z,43.90
2022-08-22T03:08:14.675Z,43.90
2022-08-22T03:10:44.508Z,43.90
2022-08-22T03:13:13.274Z,43.90
2022-08-22T03:15:48.438Z,44.00
2022-08-22T03:18:23.936Z,43.90
2022-08-22T03:20:54.995Z,44.00
2022-08-22T03:23:32.545Z,44.00
2022-08-22T03:26:07.461Z,43.90
2022-08-22T03:28:37.863Z,43.90
2022-08-22T03:31:12.491Z,44.50
2022-08-22T03:33:40.198Z,43.90
2022-08-22T03:36:11.181Z,43.90
2022-08-22T03:38:48.952Z,43.90
2022-08-22T03:41:31.371Z,43.90
2022-08-22T03:44:27.663Z,44.00
2022-08-22T03:47:07.343Z,44.00
2022-08-22T03:50:15.508Z,44.00
2022-08-22T03:53:18.869Z,44.00
2022-08-22T03:56:35.051Z,44.00
2022-08-22T03:59:26.396Z,43.90
2022-08-22T04:02:42.045Z,44.00
2022-08-22T04:05:26.333Z,44.00
2022-08-22T04:08:05.831Z,44.00
2022-08-22T04:10:39.867Z,44.00
2022-08-22T04:13:49.758Z,44.00
2022-08-22T04:16:44.434Z,44.00
2022-08-22T04:19:41.827Z,44.00
2022-08-22T04:22:19.049Z,44.00
2022-08-22T04:24:52.720Z,44.00
2022-08-22T04:27:23.322Z,44.10
2022-08-22T04:29:55.686Z,44.10
2022-08-22T04:32:26.524Z,44.00
2022-08-22T04:34:56.854Z,44.10
2022-08-22T04:37:26.311Z,44.10
2022-08-22T04:39:56.692Z,44.00
2022-08-22T04:42:32.801Z,44.00
2022-08-22T04:45:05.579Z,44.10
2022-08-22T04:47:35.127Z,44.10
2022-08-22T04:50:05.195Z,44.10
2022-08-22T04:52:40.196Z,44.10
2022-08-22T04:55:12.039Z,44.10
2022-08-22T04:57:44.961Z,44.10
2022-08-22T05:00:14.436Z,44.00
2022-08-22T05:02:43.179Z,44.10
2022-08-22T05:05:17.950Z,44.10
2022-08-22T05:07:47.211Z,44.20
2022-08-22T05:10:17.432Z,44.20
2022-08-22T05:12:47.018Z,44.10
2022-08-22T05:15:18.973Z,44.20
2022-08-22T05:17:51.796Z,44.20
2022-08-22T05:20:20.991Z,44.10
2022-08-22T05:22:51.038Z,44.10
2022-08-22T05:25:20.202Z,44.20
2022-08-22T05:27:48.817Z,44.10
2022-08-22T05:30:22.284Z,44.20
2022-08-22T05:32:51.935Z,44.10
2022-08-22T05:35:20.962Z,44.10
2022-08-22T05:37:49.703Z,44.20
2022-08-22T05:40:20.982Z,44.10
2022-08-22T05:42:48.892Z,44.10
2022-08-22T05:45:16.613Z,44.80
2022-08-22T05:47:46.914Z,44.10
2022-08-22T05:50:16.265Z,44.20
2022-08-22T05:52:52.346Z,44.20
2022-08-22T05:55:24.743Z,44.20
2022-08-22T05:57:54.645Z,44.20
2022-08-22T06:00:23.115Z,44.20
2022-08-22T06:02:55.834Z,44.20
2022-08-22T06:05:26.148Z,44.20
2022-08-22T06:07:56.000Z,44.20
2022-08-22T06:10:25.773Z,44.20
2022-08-22T06:12:56.458Z,44.20
2022-08-22T06:15:29.351Z,44.20
2022-08-22T06:17:59.611Z,44.20
2022-08-22T06:20:34.352Z,44.20
2022-08-22T06:23:02.836Z,44.30
2022-08-22T06:25:32.277Z,44.30
2022-08-22T06:28:00.626Z,44.40
2022-08-22T06:30:28.388Z,44.40
2022-08-22T06:33:00.926Z,44.40
2022-08-22T06:35:30.180Z,44.40
2022-08-22T06:37:59.429Z,44.40
2022-08-22T06:40:27.558Z,44.40
2022-08-22T06:42:55.327Z,44.40
2022-08-22T06:45:24.268Z,44.40
2022-08-22T06:47:53.962Z,44.40
2022-08-22T06:50:26.211Z,44.40
2022-08-22T06:52:59.563Z,44.40
2022-08-22T06:55:27.839Z,44.40
2022-08-22T06:57:57.009Z,44.40
2022-08-22T07:00:24.996Z,44.40
2022-08-22T07:02:55.604Z,44.40
2022-08-22T07:05:28.155Z,44.50
2022-08-22T07:07:56.064Z,44.40
2022-08-22T07:10:24.620Z,44.50
2022-08-22T07:12:54.017Z,44.50
2022-08-22T07:15:32.701Z,44.40
2022-08-22T07:18:03.264Z,44.40
2022-08-22T07:20:35.192Z,44.40
2022-08-22T07:23:05.196Z,44.40
2022-08-22T07:25:33.196Z,44.40
2022-08-22T07:28:10.005Z,44.30
2022-08-22T07:30:51.067Z,44.40
2022-08-22T07:33:28.706Z,44.30
2022-08-22T07:36:00.591Z,44.30
2022-08-22T07:38:34.793Z,44.30
2022-08-22T07:41:06.299Z,44.30
2022-08-22T07:43:36.249Z,44.40
2022-08-22T07:46:07.750Z,44.30
2022-08-22T07:48:59.513Z,44.30
2022-08-22T07:51:35.480Z,44.30
2022-08-22T07:54:04.787Z,44.30
2022-08-22T07:56:35.314Z,44.30
2022-08-22T07:59:13.010Z,44.30
2022-08-22T08:01:45.166Z,44.30
2022-08-22T08:04:15.656Z,44.30
2022-08-22T08:06:45.635Z,44.30
2022-08-22T08:09:14.936Z,44.30
2022-08-22T08:11:43.508Z,44.30
2022-08-22T08:14:13.496Z,44.40
2022-08-22T08:16:43.184Z,44.40
2022-08-22T08:19:11.589Z,44.30
2022-08-22T08:21:40.568Z,44.30
2022-08-22T08:24:17.486Z,44.30
2022-08-22T08:27:08.425Z,44.30
2022-08-22T08:29:36.966Z,44.40
2022-08-22T08:32:05.433Z,44.30
2022-08-22T08:34:34.727Z,44.30
2022-08-22T08:37:05.269Z,44.30
2022-08-22T08:39:36.128Z,44.30
2022-08-22T08:42:32.851Z,44.30
2022-08-22T08:45:15.100Z,44.20
2022-08-22T08:48:08.946Z,44.20
2022-08-22T08:50:46.779Z,44.10
2022-08-22T08:53:34.644Z,44.20
2022-08-22T08:56:06.212Z,44.10
2022-08-22T08:58:39.072Z,44.20
2022-08-22T09:01:19.424Z,44.10
2022-08-22T09:07:25.338Z,44.00
2022-08-22T09:10:06.651Z,44.10
2022-08-22T09:16:04.708Z,44.00
2022-08-22T09:19:06.436Z,44.00
2022-08-22T09:21:53.010Z,43.80
2022-08-22T09:24:49.043Z,43.90
2022-08-22T09:27:18.851Z,43.80
2022-08-22T09:29:55.566Z,43.80
2022-08-22T09:32:30.420Z,43.70
2022-08-22T09:35:01.424Z,43.70
2022-08-22T09:37:37.557Z,43.80
2022-08-22T09:40:09.825Z,43.80
2022-08-22T09:42:44.871Z,43.70
2022-08-22T09:45:43.077Z,43.60
2022-08-22T09:48:19.508Z,43.50
2022-08-22T09:50:52.798Z,43.60
2022-08-22T09:53:39.162Z,43.60
2022-08-22T09:56:15.638Z,43.50
2022-08-22T09:58:44.737Z,43.50
2022-08-22T10:01:20.204Z,43.50
2022-08-22T10:04:25.629Z,43.30
2022-08-22T10:06:56.722Z,43.20
2022-08-22T10:09:31.980Z,43.40
2022-08-22T10:12:02.164Z,43.40
2022-08-22T10:14:41.191Z,43.50
2022-08-22T10:17:21.905Z,43.50
2022-08-22T10:19:52.827Z,43.40
2022-08-22T10:22:40.222Z,43.40
2022-08-22T10:25:25.007Z,43.40
2022-08-22T10:27:58.591Z,43.20
2022-08-22T10:30:27.735Z,43.30
2022-08-22T10:33:01.518Z,43.30
2022-08-22T10:35:33.824Z,43.30
2022-08-22T10:38:04.758Z,43.20
2022-08-22T10:40:36.065Z,43.20
2022-08-22T10:43:09.382Z,43.20
2022-08-22T10:45:38.886Z,43.10
2022-08-22T10:48:35.561Z,43.10
2022-08-22T10:51:08.817Z,43.00
2022-08-22T10:53:58.425Z,43.00
2022-08-22T10:56:28.543Z,43.00
2022-08-22T10:59:01.058Z,43.00
2022-08-22T11:01:41.709Z,43.00
2022-08-22T11:04:15.954Z,42.90
2022-08-22T11:06:46.181Z,42.90
2022-08-22T11:09:16.693Z,42.90
2022-08-22T11:11:46.680Z,42.90
2022-08-22T11:14:37.996Z,42.80
2022-08-22T11:17:27.557Z,42.70
2022-08-22T11:20:13.427Z,42.70
2022-08-22T11:22:47.233Z,43.20
2022-08-22T11:25:38.997Z,42.60
2022-08-22T11:28:21.548Z,42.40
2022-08-22T11:31:08.188Z,42.50
2022-08-22T11:33:47.360Z,42.40
2022-08-22T11:36:35.788Z,42.50
2022-08-22T11:39:13.737Z,42.30
2022-08-22T11:41:52.831Z,42.50
2022-08-22T11:44:21.822Z,42.40
2022-08-22T11:46:54.122Z,42.40
2022-08-22T11:49:27.939Z,42.60
2022-08-22T11:52:16.584Z,42.30
2022-08-22T11:55:11.468Z,42.20
2022-08-22T11:57:44.338Z,42.10
2022-08-22T12:00:28.672Z,42.30
2022-08-22T12:03:15.436Z,42.20
2022-08-22T12:05:45.420Z,42.30
2022-08-22T12:08:21.168Z,42.30
2022-08-22T12:10:52.652Z,42.20
2022-08-22T12:13:34.907Z,42.20
2022-08-22T12:16:08.697Z,42.20
2022-08-22T12:18:45.043Z,42.20
2022-08-22T12:21:38.493Z,42.10
2022-08-22T12:24:29.095Z,42.00
2022-08-22T12:27:28.583Z,41.90
2022-08-22T12:30:13.946Z,42.10
2022-08-22T12:33:24.972Z,42.30
2022-08-22T12:35:59.076Z,42.00
2022-08-22T12:38:37.885Z,42.00
2022-08-22T12:41:28.380Z,42.00
2022-08-22T12:44:06.533Z,41.90
2022-08-22T12:46:47.225Z,42.00
2022-08-22T12:49:31.543Z,42.10
2022-08-22T12:52:04.461Z,42.00
2022-08-22T12:54:43.759Z,42.00
2022-08-22T12:57:24.010Z,41.90
2022-08-22T12:59:54.456Z,42.00
2022-08-22T13:02:25.892Z,42.00
2022-08-22T13:04:54.669Z,41.90
2022-08-22T13:07:25.340Z,42.00
2022-08-22T13:09:54.528Z,42.00
2022-08-22T13:12:27.597Z,42.00
2022-08-22T13:14:57.415Z,42.00
2022-08-22T13:17:25.809Z,42.10
2022-08-22T13:20:01.839Z,42.10
2022-08-22T13:22:31.258Z,42.00
2022-08-22T13:25:01.584Z,42.10
2022-08-22T13:27:35.721Z,42.10
2022-08-22T13:30:05.432Z,42.00
2022-08-22T13:32:36.431Z,42.00
2022-08-22T13:35:07.173Z,42.10
2022-08-22T13:37:36.687Z,42.10
2022-08-22T13:40:06.936Z,42.10
2022-08-22T13:42:40.119Z,42.10
2022-08-22T13:45:13.006Z,42.10
2022-08-22T13:47:48.689Z,42.20
2022-08-22T13:50:19.098Z,42.10
2022-08-22T13:52:52.346Z,42.20
2022-08-22T13:55:27.609Z,42.20
2022-08-22T13:58:02.286Z,42.20
2022-08-22T14:01:08.688Z,42.20
2022-08-22T14:03:40.347Z,42.20
2022-08-22T14:06:37.403Z,42.30
2022-08-22T14:09:15.118Z,42.30
2022-08-22T14:11:47.016Z,42.30
2022-08-22T14:14:20.652Z,42.30
2022-08-22T14:16:49.505Z,42.40
2022-08-22T14:19:23.854Z,42.40
2022-08-22T14:21:55.869Z,42.40
2022-08-22T14:24:29.024Z,42.20
2022-08-22T14:26:59.376Z,42.30
2022-08-22T14:29:40.480Z,42.30
2022-08-22T14:32:13.117Z,42.30
2022-08-22T14:34:41.988Z,42.30
2022-08-22T14:37:16.905Z,42.30
2022-08-22T14:39:46.477Z,42.30
2022-08-22T14:42:17.462Z,42.20
2022-08-22T14:44:51.798Z,42.20
2022-08-22T14:47:54.397Z,42.30
2022-08-22T14:50:36.901Z,42.30
2022-08-22T14:53:06.027Z,42.30
2022-08-22T14:55:33.915Z,42.40
2022-08-22T14:58:06.005Z,42.30
2022-08-22T15:00:38.042Z,42.40
2022-08-22T15:03:11.742Z,42.30
2022-08-22T15:05:45.646Z,42.30
2022-08-22T15:08:20.983Z,42.40
2022-08-22T15:11:21.976Z,42.40
2022-08-22T15:13:56.974Z,42.40
2022-08-22T15:16:34.470Z,42.40
2022-08-22T15:19:02.934Z,42.40
2022-08-22T15:21:31.969Z,42.40
2022-08-22T15:24:03.232Z,42.40
2022-08-22T15:26:32.280Z,42.50
2022-08-22T15:29:07.458Z,42.50
2022-08-22T15:31:36.545Z,42.50
2022-08-22T15:34:11.784Z,42.50
2022-08-22T15:37:21.350Z,42.50
2022-08-22T15:40:02.729Z,42.50
2022-08-22T15:42:34.430Z,42.50
2022-08-22T15:45:02.162Z,42.50
2022-08-22T15:47:36.295Z,42.50
2022-08-22T15:50:06.592Z,42.50
2022-08-22T15:53:04.866Z,42.60
2022-08-22T15:55:35.273Z,42.50
2022-08-22T15:58:08.367Z,42.60
2022-08-22T16:00:43.863Z,42.60
2022-08-22T16:03:24.328Z,42.60
2022-08-22T16:05:55.663Z,42.60
2022-08-22T16:08:26.532Z,42.60
2022-08-22T16:10:57.248Z,42.60
2022-08-22T16:13:39.251Z,42.70
2022-08-22T16:16:09.185Z,42.70
2022-08-22T16:19:11.075Z,42.70
2022-08-22T16:22:05.187Z,42.70
2022-08-22T16:24:34.370Z,42.70
2022-08-22T16:27:18.361Z,42.80
2022-08-22T16:29:46.067Z,42.70
2022-08-22T16:32:13.861Z,42.80
2022-08-22T16:34:45.749Z,42.80
2022-08-22T16:37:42.639Z,42.80
2022-08-22T16:40:14.772Z,42.90
2022-08-22T16:42:43.974Z,43.60
2022-08-22T16:45:19.774Z,43.00
2022-08-22T16:47:52.812Z,43.00
2022-08-22T16:50:31.070Z,43.00
2022-08-22T16:53:01.157Z,43.00
2022-08-22T16:55:49.072Z,43.00
2022-08-22T16:58:44.713Z,43.00
2022-08-22T17:01:20.604Z,43.00
2022-08-22T17:03:53.846Z,43.00
2022-08-22T17:06:32.391Z,43.70
2022-08-22T17:09:23.680Z,43.00
2022-08-22T17:11:55.855Z,43.10
2022-08-22T17:14:32.012Z,43.10
2022-08-22T17:17:14.856Z,43.10
2022-08-22T17:19:50.712Z,43.20
2022-08-22T17:22:28.417Z,43.10
2022-08-22T17:25:08.430Z,43.20
2022-08-22T17:27:39.635Z,43.20
2022-08-22T17:30:09.737Z,43.10
2022-08-22T17:32:42.923Z,43.10
2022-08-22T17:35:17.850Z,43.10
2022-08-22T17:37:54.069Z,43.10
2022-08-22T17:40:27.250Z,43.10
2022-08-22T17:43:08.746Z,43.10
2022-08-22T17:45:46.897Z,43.20
2022-08-22T17:48:16.302Z,43.20
2022-08-22T17:50:46.010Z,43.30
2022-08-22T17:53:23.020Z,43.20
2022-08-22T17:55:57.310Z,43.20
2022-08-22T17:58:37.969Z,43.20
2022-08-22T18:01:14.518Z,43.20
2022-08-22T18:03:45.918Z,43.30
2022-08-22T18:06:19.256Z,43.30
2022-08-22T18:11:42.399Z,43.40
2022-08-22T18:14:12.345Z,43.50
2022-08-22T18:16:44.553Z,43.60
2022-08-22T18:19:14.361Z,43.60
2022-08-22T18:21:47.762Z,43.80
2022-08-22T18:24:20.303Z,43.80
2022-08-22T18:26:52.931Z,43.90
2022-08-22T18:29:21.631Z,44.00
2022-08-22T18:31:52.054Z,44.00
2022-08-22T18:34:27.027Z,44.00
2022-08-22T18:36:58.015Z,44.00
2022-08-22T18:39:29.884Z,44.00
2022-08-22T18:42:01.234Z,44.00
2022-08-22T18:44:29.845Z,44.00
2022-08-22T18:46:57.783Z,44.00
2022-08-22T18:49:41.773Z,44.00
2022-08-22T18:52:18.078Z,44.10
2022-08-22T18:54:57.049Z,44.10
2022-08-22T18:57:31.534Z,44.20
2022-08-22T19:00:11.104Z,44.10
2022-08-22T19:02:57.626Z,44.10
2022-08-22T19:05:47.149Z,44.30
2022-08-22T19:08:44.201Z,44.20
2022-08-22T19:11:20.054Z,44.30
2022-08-22T19:14:03.356Z,45.00
2022-08-22T19:16:45.222Z,44.50
2022-08-22T19:19:17.114Z,44.40
2022-08-22T19:22:20.297Z,44.40
2022-08-22T19:25:10.687Z,44.50
2022-08-22T19:27:41.261Z,44.50
2022-08-22T19:30:09.668Z,44.50
2022-08-22T19:33:04.145Z,44.50
2022-08-22T19:35:46.384Z,44.60
2022-08-22T19:38:14.186Z,44.60
2022-08-22T19:40:53.329Z,44.60
2022-08-22T19:43:29.522Z,44.60
2022-08-22T19:45:57.297Z,44.60
2022-08-22T19:48:27.207Z,44.60
2022-08-22T19:51:15.720Z,44.60
2022-08-22T19:53:49.838Z,44.70
2022-08-22T19:56:37.850Z,44.70
2022-08-22T19:59:16.509Z,44.70
2022-08-22T20:01:47.129Z,44.70
2022-08-22T20:04:35.649Z,44.70
2022-08-22T20:07:14.412Z,44.70
2022-08-22T20:09:45.514Z,44.70
2022-08-22T20:12:15.722Z,44.70
2022-08-22T20:14:45.924Z,44.60
2022-08-22T20:17:14.851Z,44.60
2022-08-22T20:22:42.367Z,44.60
2022-08-22T20:25:17.011Z,44.60
2022-08-22T20:28:02.636Z,44.60
2022-08-22T20:30:38.237Z,44.60
2022-08-22T20:33:07.652Z,44.50
2022-08-22T20:35:36.692Z,44.50
2022-08-22T20:38:07.199Z,44.50
2022-08-22T20:40:56.587Z,44.50
2022-08-22T20:43:28.417Z,44.40
2022-08-22T20:46:02.516Z,44.50
2022-08-22T20:48:39.223Z,44.40
2022-08-22T20:51:07.440Z,44.40
2022-08-22T20:53:35.186Z,44.40
2022-08-22T20:56:03.140Z,44.40
2022-08-22T20:58:40.084Z,44.40
2022-08-22T21:01:11.281Z,44.30
2022-08-22T21:03:40.788Z,44.30
2022-08-22T21:06:13.118Z,44.30
2022-08-22T21:08:40.991Z,44.30
2022-08-22T21:11:26.525Z,44.30
2022-08-22T21:13:54.751Z,44.30
2022-08-22T21:16:31.401Z,44.20
2022-08-22T21:19:01.446Z,44.20
2022-08-22T21:21:29.999Z,44.20
2022-08-22T21:24:00.758Z,44.20
2022-08-22T21:26:30.043Z,44.20
2022-08-22T21:28:59.877Z,44.20
2022-08-22T21:31:31.624Z,44.20
2022-08-22T21:33:59.329Z,44.20
2022-08-22T21:36:28.235Z,44.20
2022-08-22T21:38:57.154Z,44.20
2022-08-22T21:41:26.732Z,44.20
2022-08-22T21:43:54.516Z,44.20
2022-08-22T21:46:26.400Z,44.10
2022-08-22T21:49:04.075Z,44.20
2022-08-22T21:51:40.385Z,44.10
2022-08-22T21:54:32.818Z,44.10
2022-08-22T21:57:14.662Z,44.10
2022-08-22T21:59:51.894Z,44.10
2022-08-22T22:02:34.241Z,44.10
2022-08-22T22:05:08.859Z,44.10
2022-08-22T22:07:38.094Z,44.10
2022-08-22T22:10:07.303Z,44.10
2022-08-22T22:12:35.028Z,44.10
2022-08-22T22:15:02.719Z,44.10
2022-08-22T22:17:30.411Z,44.10
2022-08-22T22:19:58.080Z,44.10
2022-08-22T22:22:27.176Z,44.10
2022-08-22T22:24:54.842Z,44.10
2022-08-22T22:27:22.561Z,44.10
2022-08-22T22:29:50.241Z,44.20
2022-08-22T22:32:17.910Z,44.10
2022-08-22T22:34:45.615Z,44.10
2022-08-22T22:37:14.629Z,44.10
2022-08-22T22:39:43.705Z,44.10
2022-08-22T22:42:11.422Z,44.10
2022-08-22T22:44:39.084Z,44.10
2022-08-22T22:47:11.574Z,44.70
2022-08-22T22:49:39.254Z,44.10
2022-08-22T22:52:07.099Z,44.10
2022-08-22T22:54:39.351Z,44.10
2022-08-22T22:57:12.407Z,44.20
2022-08-22T22:59:41.080Z,44.20
2022-08-22T23:02:10.226Z,44.20
2022-08-22T23:04:39.448Z,44.20
2022-08-22T23:07:07.343Z,44.20
2022-08-22T23:09:38.740Z,44.20
2022-08-22T23:12:14.651Z,44.20
2022-08-22T23:14:42.367Z,44.20
2022-08-22T23:17:10.143Z,44.20
2022-08-22T23:19:38.772Z,44.20
2022-08-22T23:22:06.672Z,44.20
2022-08-22T23:24:34.591Z,44.20
2022-08-22T23:27:02.315Z,44.20
2022-08-22T23:29:31.300Z,44.20
2022-08-22T23:31:59.682Z,44.20
2022-08-22T23:34:28.913Z,44.20
2022-08-22T23:36:57.667Z,44.20
2022-08-22T23:39:26.064Z,44.20
2022-08-22T23:41:53.810Z,44.10
2022-08-22T23:44:22.816Z,44.20
2022-08-22T23:46:52.156Z,44.20
2022-08-22T23:49:19.905Z,44.20
2022-08-22T23:51:48.227Z,44.20
2022-08-22T23:54:15.941Z,44.20
2022-08-22T23:56:44.620Z,44.20
2022-08-22T23:59:13.404Z,44.20
